Main page
METAR-TAF:

METAR-TAF

Airports :

Robert Gabriel Mugabe International Airport

Harare, Zimbabwe

latitude: 17-55S, longitude: 031-08E, elevation: 1479 m

Current weather observation

The report was made 51 minutes ago, at 11:00 UTC
Wind 10 kt from the East/Southeast
Temperature 18°C
Humidity 37%
Pressure 1032 hPa
Visibility 10 km or more
no clouds below 1500 m and no cumulonimbus

METAR: FVHA 231100Z 12010KT CAVOK 18/03 Q1032 NOSIG

Time: 13:51 (11:51 UTC)

Forecast

The report was made 7 hours and 51 minutes ago, at 04:00 UTC
Forecast valid from 23 at 06 UTC to 24 at 12 UTC
Wind 7 kt from the Southeast
Visibility 10 km or more
no clouds below 1500 m and no cumulonimbus
Becoming
from 23 at 07 UTC to 23 at 09 UTC
Visibility 10 km or more
Scattered clouds at a height of 2000 ft
From 23 at 1400 UTC
Visibility 10 km or more
no clouds below 1500 m and no cumulonimbus

TAF: FVHA 230400Z 2306/2412 14007KT CAVOK BECMG 2307/2309 9999 SCT020 FM231400 CAVOK

Weather observations and forecasts of more than 4000 airports (METAR and TAF reports).

The available stations are represented by yellow and red dots on the map.

Hover mouse over dot to see the name of the station.

Then click to see weather observations and forecasts.

To change the map : click on the green buttons with a black cross to zoom in, on the green button with a dash to zoom out, or on the green arrows for adjacent maps.


METAR-TAF: